createdAt,value
2018-02-08T00:02:44.203Z,33.13
2018-02-08T00:06:46.739Z,31.73
2018-02-08T00:10:49.290Z,30.37
2018-02-08T00:14:51.805Z,28.20
2018-02-08T00:18:54.336Z,28.77
2018-02-08T00:22:57.647Z,30.20
2018-02-08T00:27:15.774Z,32.57
2018-02-08T00:31:18.285Z,28.67
2018-02-08T00:35:21.590Z,37.30
2018-02-08T00:39:24.110Z,30.23
2018-02-08T00:43:26.658Z,35.00
2018-02-08T00:47:29.942Z,28.20
2018-02-08T00:51:32.486Z,37.63
2018-02-08T00:55:35.008Z,32.60
2018-02-08T00:59:37.543Z,31.03
2018-02-08T01:03:40.073Z,32.03
2018-02-08T01:07:42.614Z,30.83
2018-02-08T01:11:45.157Z,29.40
2018-02-08T01:15:47.710Z,27.17
2018-02-08T01:19:50.321Z,31.77
2018-02-08T01:23:52.862Z,28.53
2018-02-08T01:27:55.379Z,25.93
2018-02-08T01:31:57.936Z,25.60
2018-02-08T01:36:00.497Z,28.57
2018-02-08T01:40:03.043Z,24.93
2018-02-08T01:44:05.565Z,25.30
2018-02-08T01:48:08.882Z,27.33
2018-02-08T01:52:11.405Z,26.90
2018-02-08T01:56:13.986Z,24.33
2018-02-08T02:00:16.496Z,25.30
2018-02-08T02:04:19.048Z,27.60
2018-02-08T02:08:21.605Z,26.37
2018-02-08T02:12:24.144Z,28.23
2018-02-08T02:16:26.669Z,23.53
2018-02-08T02:20:29.969Z,22.90
2018-02-08T02:24:33.245Z,23.47
2018-02-08T02:28:35.795Z,22.83
2018-02-08T02:32:38.320Z,26.77
2018-02-08T02:36:40.852Z,23.17
2018-02-08T02:40:43.368Z,25.20
2018-02-08T02:44:45.892Z,24.77
2018-02-08T02:48:48.424Z,24.43
2018-02-08T02:52:51.276Z,23.37
2018-02-08T02:56:54.555Z,28.17
2018-02-08T03:00:57.108Z,26.17
2018-02-08T03:04:59.629Z,25.60
2018-02-08T03:09:02.178Z,25.60
2018-02-08T03:13:04.696Z,24.93
2018-02-08T03:17:07.254Z,25.47
2018-02-08T03:21:10.490Z,27.03
2018-02-08T03:25:13.063Z,23.77
2018-02-08T03:29:15.600Z,23.93
2018-02-08T03:33:18.893Z,23.53
2018-02-08T03:37:22.194Z,23.63
2018-02-08T03:41:25.492Z,22.40
2018-02-08T03:45:27.999Z,25.07
2018-02-08T03:49:30.532Z,22.13
2018-02-08T03:53:33.063Z,23.67
2018-02-08T03:57:36.686Z,23.17
2018-02-08T04:01:39.202Z,23.67
2018-02-08T04:05:41.740Z,24.57
2018-02-08T04:09:45.024Z,26.87
2018-02-08T04:13:47.558Z,23.70
2018-02-08T04:17:50.133Z,27.87
2018-02-08T04:21:52.671Z,29.80
2018-02-08T04:25:55.188Z,26.10
2018-02-08T04:29:58.551Z,28.20
2018-02-08T04:34:01.080Z,27.33
2018-02-08T04:38:04.391Z,30.53
2018-02-08T04:42:19.521Z,28.03
2018-02-08T04:50:59.649Z,26.50
2018-02-08T04:55:02.167Z,26.27
2018-02-08T04:59:04.699Z,27.93
2018-02-08T05:03:07.234Z,29.27
2018-02-08T05:07:09.770Z,27.87
2018-02-08T05:11:12.291Z,29.57
2018-02-08T05:15:15.578Z,27.10
2018-02-08T05:19:18.141Z,32.50
2018-02-08T05:23:20.675Z,31.43
2018-02-08T05:27:23.207Z,31.67
2018-02-08T05:31:25.741Z,31.07
2018-02-08T05:35:29.038Z,29.93
2018-02-08T05:39:32.337Z,30.57
2018-02-08T05:43:35.624Z,31.33
2018-02-08T05:47:38.164Z,33.63
2018-02-08T05:51:40.678Z,33.43
2018-02-08T05:55:43.520Z,38.33
2018-02-08T05:59:46.041Z,30.93
2018-02-08T06:03:48.586Z,33.30
2018-02-08T06:07:52.011Z,31.27
2018-02-08T06:11:54.531Z,34.17
2018-02-08T06:15:57.065Z,33.30
2018-02-08T06:20:00.333Z,35.03
2018-02-08T06:24:02.885Z,33.40
2018-02-08T06:28:05.392Z,32.83
2018-02-08T06:32:07.927Z,35.13
2018-02-08T06:36:11.206Z,39.43
2018-02-08T06:40:13.752Z,37.20
2018-02-08T06:44:16.288Z,51.03
2018-02-08T06:48:19.588Z,43.63
2018-02-08T06:52:22.101Z,43.37
2018-02-08T06:56:24.635Z,31.10
2018-02-08T07:00:27.152Z,37.50
2018-02-08T07:04:30.452Z,34.97
2018-02-08T07:08:32.970Z,32.77
2018-02-08T07:12:35.508Z,32.43
2018-02-08T07:16:38.004Z,30.47
2018-02-08T07:20:40.546Z,32.97
2018-02-08T07:24:43.074Z,34.87
2018-02-08T07:28:45.606Z,33.33
2018-02-08T07:32:48.121Z,34.53
2018-02-08T07:36:50.647Z,34.80
2018-02-08T07:40:53.946Z,32.00
2018-02-08T07:44:57.277Z,40.13
2018-02-08T07:48:59.804Z,35.43
2018-02-08T07:53:02.345Z,29.70
2018-02-08T07:57:04.855Z,34.20
2018-02-08T08:01:07.379Z,36.60
2018-02-08T08:05:09.888Z,32.67
2018-02-08T08:09:13.196Z,28.93
2018-02-08T08:13:15.729Z,31.17
2018-02-08T08:17:18.406Z,26.50
2018-02-08T08:21:20.920Z,27.07
2018-02-08T08:25:23.454Z,32.23
2018-02-08T08:29:25.974Z,26.77
2018-02-08T08:33:28.502Z,28.33
2018-02-08T08:37:32.676Z,30.80
2018-02-08T08:41:35.195Z,29.87
2018-02-08T08:45:37.748Z,29.67
2018-02-08T08:49:40.350Z,23.93
2018-02-08T08:53:42.863Z,27.20
2018-02-08T08:57:45.401Z,25.17
2018-02-08T09:01:47.904Z,25.53
2018-02-08T09:05:50.458Z,25.83
2018-02-08T09:09:52.972Z,24.77
2018-02-08T09:13:55.501Z,23.37
2018-02-08T09:17:58.794Z,22.37
2018-02-08T09:22:02.846Z,22.90
2018-02-08T09:26:05.355Z,22.07
2018-02-08T09:30:07.899Z,25.53
2018-02-08T09:34:11.184Z,22.20
2018-02-08T09:38:13.756Z,25.83
2018-02-08T09:42:16.376Z,24.83
2018-02-08T09:46:18.924Z,27.47
2018-02-08T09:50:21.438Z,26.27
2018-02-08T09:54:23.967Z,24.73
2018-02-08T09:58:26.476Z,24.77
2018-02-08T10:02:29.004Z,26.43
2018-02-08T10:06:32.279Z,25.77
2018-02-08T10:10:34.830Z,25.47
2018-02-08T10:14:37.333Z,27.53
2018-02-08T10:18:39.861Z,25.23
2018-02-08T10:22:43.159Z,26.07
2018-02-08T10:26:45.771Z,24.40
2018-02-08T10:30:48.294Z,22.93
2018-02-08T10:34:50.845Z,24.10
2018-02-08T10:38:53.368Z,21.70
2018-02-08T10:42:55.910Z,26.50
2018-02-08T10:46:58.472Z,22.73
2018-02-08T10:51:01.114Z,25.57
2018-02-08T10:55:03.621Z,24.93
2018-02-08T10:59:06.159Z,28.10
2018-02-08T11:03:08.693Z,26.57
2018-02-08T11:07:11.257Z,28.10
2018-02-08T11:11:13.822Z,23.50
2018-02-08T11:15:16.331Z,21.70
2018-02-08T11:19:18.851Z,22.07
2018-02-08T11:23:21.385Z,20.20
2018-02-08T11:27:23.918Z,22.80
2018-02-08T11:31:26.443Z,23.17
2018-02-08T11:35:29.750Z,21.63
2018-02-08T11:39:32.286Z,19.67
2018-02-08T11:43:34.876Z,24.37
2018-02-08T11:47:37.383Z,19.20
2018-02-08T11:51:39.945Z,19.13
2018-02-08T11:55:42.476Z,18.07
2018-02-08T11:59:45.775Z,17.13
2018-02-08T12:03:49.038Z,19.73
2018-02-08T12:07:51.617Z,18.10
2018-02-08T12:11:54.129Z,17.07
2018-02-08T12:15:57.264Z,17.50
2018-02-08T12:19:59.790Z,19.60
2018-02-08T12:24:02.316Z,16.33
2018-02-08T12:28:05.620Z,17.00
2018-02-08T12:32:08.923Z,18.73
2018-02-08T12:36:12.228Z,17.47
2018-02-08T12:40:14.761Z,18.77
2018-02-08T12:44:17.264Z,18.47
2018-02-08T12:48:19.834Z,19.23
2018-02-08T12:52:22.350Z,18.70
2018-02-08T12:56:24.885Z,19.50
2018-02-08T13:00:27.405Z,23.97
2018-02-08T13:04:29.949Z,19.53
2018-02-08T13:08:32.473Z,21.57
2018-02-08T13:12:35.035Z,25.20
2018-02-08T13:16:37.757Z,22.73
2018-02-08T13:20:40.305Z,21.70
2018-02-08T13:24:42.841Z,24.27
2018-02-08T13:28:45.403Z,21.33
2018-02-08T13:32:47.939Z,19.40
2018-02-08T13:36:51.360Z,22.40
2018-02-08T13:40:54.789Z,24.00
2018-02-08T13:44:57.327Z,21.57
2018-02-08T13:49:00.401Z,25.57
2018-02-08T13:53:08.596Z,24.57
2018-02-08T13:57:16.851Z,24.77
2018-02-08T14:01:19.812Z,26.90
2018-02-08T14:05:22.346Z,32.17
2018-02-08T14:09:24.888Z,27.67
2018-02-08T14:13:27.394Z,27.87
2018-02-08T14:17:29.929Z,27.77
2018-02-08T14:21:32.475Z,29.50
2018-02-08T14:25:35.007Z,27.73
2018-02-08T14:29:37.530Z,27.80
2018-02-08T14:33:40.077Z,30.73
2018-02-08T14:37:42.628Z,24.40
2018-02-08T14:41:45.151Z,24.53
2018-02-08T14:45:47.684Z,25.17
2018-02-08T14:49:50.243Z,24.63
2018-02-08T14:53:53.268Z,23.73
2018-02-08T14:57:55.794Z,23.10
2018-02-08T15:01:59.084Z,23.17
2018-02-08T15:06:02.368Z,26.70
2018-02-08T15:10:04.903Z,27.00
2018-02-08T15:14:07.435Z,28.10
2018-02-08T15:18:09.982Z,27.13
2018-02-08T15:22:12.504Z,31.87
2018-02-08T15:26:15.074Z,24.47
2018-02-08T15:30:17.618Z,31.00
2018-02-08T15:34:20.916Z,31.40
2018-02-08T15:38:24.210Z,32.20
2018-02-08T15:42:26.750Z,32.93
2018-02-08T15:46:29.311Z,28.33
2018-02-08T15:50:31.849Z,29.63
2018-02-08T15:54:34.366Z,31.13
2018-02-08T15:58:37.669Z,32.47
2018-02-08T16:02:40.940Z,34.37
2018-02-08T16:06:43.477Z,34.93
2018-02-08T16:10:45.998Z,33.67
2018-02-08T16:14:48.563Z,34.47
2018-02-08T16:18:51.102Z,32.90
2018-02-08T16:22:53.644Z,31.63
2018-02-08T16:26:56.163Z,36.17
2018-02-08T16:30:58.790Z,32.97
2018-02-08T16:35:01.308Z,32.07
2018-02-08T16:39:03.866Z,34.77
2018-02-08T16:43:06.394Z,35.87
2018-02-08T16:47:09.243Z,37.93
2018-02-08T16:51:11.789Z,40.67
2018-02-08T16:55:14.613Z,39.53
2018-02-08T16:59:17.885Z,36.53
2018-02-08T17:03:20.416Z,35.50
2018-02-08T17:07:22.965Z,40.80
2018-02-08T17:11:25.515Z,38.40
2018-02-08T17:15:28.099Z,37.77
2018-02-08T17:19:30.659Z,38.13
2018-02-08T17:23:33.202Z,43.00
2018-02-08T17:27:36.032Z,43.13
2018-02-08T17:31:38.805Z,40.20
2018-02-08T17:35:42.533Z,41.27
2018-02-08T17:39:45.874Z,40.53
2018-02-08T17:43:48.672Z,43.07
2018-02-08T17:47:51.179Z,44.47
2018-02-08T17:51:53.728Z,43.77
2018-02-08T17:55:56.264Z,41.50
2018-02-08T17:59:58.815Z,43.17
2018-02-08T18:04:01.356Z,45.77
2018-02-08T18:08:04.664Z,42.03
2018-02-08T18:12:07.246Z,41.33
2018-02-08T18:16:10.559Z,44.50
2018-02-08T18:20:13.076Z,42.50
2018-02-08T18:24:15.607Z,52.80
2018-02-08T18:28:18.405Z,47.60
2018-02-08T18:32:21.692Z,47.57
2018-02-08T18:36:24.240Z,45.17
2018-02-08T18:40:26.776Z,43.50
2018-02-08T18:44:29.324Z,45.07
2018-02-08T18:48:31.926Z,46.67
2018-02-08T18:52:34.494Z,48.90
2018-02-08T18:56:37.039Z,47.33
2018-02-08T19:00:40.338Z,45.50
2018-02-08T19:04:43.622Z,47.03
2018-02-08T19:08:46.178Z,48.67
2018-02-08T19:12:49.041Z,47.30
2018-02-08T19:16:51.857Z,46.73
2018-02-08T19:20:54.518Z,48.57
2018-02-08T19:24:57.073Z,48.70
2018-02-08T19:28:59.605Z,49.80
2018-02-08T19:33:02.168Z,49.60
2018-02-08T19:37:05.472Z,51.07
2018-02-08T19:41:08.045Z,50.33
2018-02-08T19:45:11.343Z,44.73
2018-02-08T19:49:13.878Z,52.17
2018-02-08T19:53:16.441Z,47.50
2018-02-08T19:57:18.983Z,51.87
2018-02-08T20:01:21.510Z,53.47
2018-02-08T20:05:24.050Z,52.60
2018-02-08T20:09:26.586Z,52.37
2018-02-08T20:13:29.140Z,52.20
2018-02-08T20:17:31.816Z,48.17
2018-02-08T20:21:34.350Z,52.27
2018-02-08T20:25:40.461Z,56.27
2018-02-08T20:29:43.014Z,49.73
2018-02-08T20:33:45.528Z,58.53
2018-02-08T20:37:48.093Z,57.57
2018-02-08T20:41:50.635Z,60.93
2018-02-08T20:45:53.164Z,58.30
2018-02-08T20:50:01.324Z,55.50
2018-02-08T20:54:03.873Z,54.43
2018-02-08T20:58:06.394Z,58.37
2018-02-08T21:02:08.999Z,60.73
2018-02-08T21:06:12.001Z,63.77
2018-02-08T21:10:15.311Z,57.03
2018-02-08T21:14:18.622Z,62.47
2018-02-08T21:18:21.977Z,62.00
2018-02-08T21:22:24.513Z,62.47
2018-02-08T21:26:27.814Z,61.10
2018-02-08T21:30:31.104Z,65.67
2018-02-08T21:34:33.702Z,63.17
2018-02-08T21:38:37.004Z,63.70
2018-02-08T21:42:40.309Z,58.10
2018-02-08T21:46:43.632Z,63.37
2018-02-08T21:50:46.168Z,62.27
2018-02-08T21:54:48.717Z,67.27
2018-02-08T21:58:51.267Z,65.40
2018-02-08T22:02:54.547Z,66.63
2018-02-08T22:06:57.111Z,69.67
2018-02-08T22:10:59.617Z,67.97
2018-02-08T22:15:02.157Z,73.47
2018-02-08T22:19:04.680Z,70.27
2018-02-08T22:23:07.227Z,66.23
2018-02-08T22:27:09.748Z,66.53
2018-02-08T22:31:12.275Z,71.97
2018-02-08T22:35:15.666Z,66.17
2018-02-08T22:39:18.201Z,69.47
2018-02-08T22:43:20.802Z,67.77
2018-02-08T22:47:23.430Z,73.83
2018-02-08T22:51:26.390Z,72.93
2018-02-08T22:55:29.112Z,77.03
2018-02-08T22:59:31.736Z,73.33
2018-02-08T23:03:34.318Z,73.37
2018-02-08T23:07:37.647Z,73.50
2018-02-08T23:11:40.393Z,77.20
2018-02-08T23:15:43.745Z,74.70
2018-02-08T23:19:46.341Z,81.63
2018-02-08T23:23:49.240Z,73.60
2018-02-08T23:27:51.856Z,79.93
2018-02-08T23:31:54.413Z,74.03
2018-02-08T23:35:56.967Z,77.10
2018-02-08T23:40:00.104Z,80.57
2018-02-08T23:44:03.400Z,81.23
2018-02-08T23:48:06.154Z,75.13
2018-02-08T23:52:09.500Z,80.80
2018-02-08T23:56:12.097Z,76.70
